createdAt,value
2019-04-29T00:03:34.620Z,3.45
2019-04-29T00:06:02.862Z,4.83
2019-04-29T00:08:31.118Z,4.45
2019-04-29T00:10:59.352Z,4.08
2019-04-29T00:13:27.616Z,3.75
2019-04-29T00:19:01.580Z,3.30
2019-04-29T00:21:30.397Z,3.83
2019-04-29T00:24:03.853Z,3.20
2019-04-29T00:26:28.684Z,2.92
2019-04-29T00:28:56.932Z,3.60
2019-04-29T00:31:25.163Z,3.52
2019-04-29T00:33:53.424Z,3.00
2019-04-29T00:36:23.301Z,3.33
2019-04-29T00:39:09.366Z,5.10
2019-04-29T00:41:48.259Z,3.08
2019-04-29T00:44:17.688Z,4.70
2019-04-29T00:46:46.453Z,3.87
2019-04-29T00:49:14.708Z,3.52
2019-04-29T00:51:42.954Z,3.42
2019-04-29T00:54:15.305Z,3.65
2019-04-29T00:56:43.549Z,2.62
2019-04-29T00:59:11.792Z,2.92
2019-04-29T01:01:40.032Z,3.47
2019-04-29T01:04:08.276Z,3.10
2019-04-29T01:06:36.519Z,3.30
2019-04-29T01:09:07.647Z,3.20
2019-04-29T01:11:35.894Z,2.87
2019-04-29T01:14:04.144Z,4.22
2019-04-29T01:16:32.392Z,2.90
2019-04-29T01:19:03.722Z,2.80
2019-04-29T01:21:30.593Z,2.72
2019-04-29T01:23:58.840Z,2.83
2019-04-29T01:26:44.815Z,2.62
2019-04-29T01:29:14.717Z,3.05
2019-04-29T01:31:42.960Z,2.92
2019-04-29T01:34:18.828Z,2.62
2019-04-29T01:36:47.741Z,2.70
2019-04-29T01:39:15.981Z,3.52
2019-04-29T01:41:54.629Z,3.33
2019-04-29T01:44:24.592Z,2.90
2019-04-29T01:46:52.824Z,2.50
2019-04-29T01:49:21.099Z,4.25
2019-04-29T01:51:49.397Z,5.97
2019-04-29T01:54:17.652Z,4.33
2019-04-29T01:56:45.896Z,2.45
2019-04-29T01:59:14.148Z,2.40
2019-04-29T02:01:42.391Z,2.35
2019-04-29T02:04:30.077Z,3.85
2019-04-29T02:06:58.318Z,7.10
2019-04-29T02:09:31.168Z,2.42
2019-04-29T02:11:59.694Z,3.17
2019-04-29T02:14:27.929Z,2.60
2019-04-29T02:16:56.175Z,2.98
2019-04-29T02:19:24.436Z,2.90
2019-04-29T02:22:10.782Z,2.17
2019-04-29T02:24:43.573Z,2.30
2019-04-29T02:27:11.814Z,2.62
2019-04-29T02:29:40.064Z,2.33
2019-04-29T02:32:08.307Z,3.08
2019-04-29T02:34:36.565Z,2.67
2019-04-29T02:37:06.445Z,3.17
2019-04-29T02:39:39.113Z,3.67
2019-04-29T02:42:25.205Z,4.70
2019-04-29T02:44:54.381Z,3.55
2019-04-29T02:47:22.616Z,2.40
2019-04-29T02:49:50.873Z,2.47
2019-04-29T02:52:19.122Z,2.87
2019-04-29T02:54:47.946Z,4.00
2019-04-29T02:57:17.830Z,5.83
2019-04-29T02:59:50.370Z,8.58
2019-04-29T03:02:35.217Z,2.72
2019-04-29T03:07:41.699Z,3.58
2019-04-29T03:10:09.949Z,3.20
2019-04-29T03:12:38.197Z,2.80
2019-04-29T03:15:06.446Z,2.67
2019-04-29T03:17:34.702Z,2.67
2019-04-29T03:20:13.708Z,2.70
2019-04-29T03:22:46.296Z,2.22
2019-04-29T03:25:14.545Z,2.40
2019-04-29T03:27:42.858Z,2.20
2019-04-29T03:30:11.113Z,1.70
2019-04-29T03:32:39.354Z,2.15
2019-04-29T03:35:07.677Z,2.20
2019-04-29T03:37:35.922Z,2.12
2019-04-29T03:40:04.723Z,2.65
2019-04-29T03:42:32.954Z,2.12
2019-04-29T03:45:01.201Z,1.60
2019-04-29T03:47:29.444Z,1.87
2019-04-29T03:49:57.702Z,1.90
2019-04-29T03:52:26.017Z,2.15
2019-04-29T03:54:54.348Z,2.30
2019-04-29T03:57:22.580Z,2.52
2019-04-29T03:59:50.837Z,2.87
2019-04-29T04:02:20.717Z,2.27
2019-04-29T04:04:53.523Z,59.00
2019-04-29T04:07:39.894Z,37.10
2019-04-29T04:10:08.694Z,3.08
2019-04-29T04:12:36.930Z,2.83
2019-04-29T04:15:09.117Z,2.40
2019-04-29T04:17:55.450Z,7.70
2019-04-29T04:20:24.371Z,2.40
2019-04-29T04:22:52.791Z,2.90
2019-04-29T04:25:21.048Z,2.60
2019-04-29T04:27:49.305Z,2.75
2019-04-29T04:30:18.781Z,2.85
2019-04-29T04:32:47.096Z,2.90
2019-04-29T04:35:15.416Z,2.83
2019-04-29T04:37:43.661Z,2.33
2019-04-29T04:40:13.553Z,2.02
2019-04-29T04:42:41.790Z,2.02
2019-04-29T04:45:10.044Z,1.90
2019-04-29T04:47:38.285Z,1.60
2019-04-29T04:50:06.537Z,2.05
2019-04-29T04:52:34.865Z,3.35
2019-04-29T04:55:03.658Z,2.70
2019-04-29T04:57:31.896Z,3.90
2019-04-29T05:00:00.162Z,4.22
2019-04-29T05:02:28.388Z,2.33
2019-04-29T05:04:56.644Z,1.75
2019-04-29T05:07:24.890Z,3.40
2019-04-29T05:09:53.128Z,3.83
2019-04-29T05:12:21.376Z,3.60
2019-04-29T05:14:49.621Z,3.85
2019-04-29T05:17:17.875Z,4.10
2019-04-29T05:19:46.116Z,3.42
2019-04-29T05:22:14.382Z,3.62
2019-04-29T05:24:42.616Z,3.65
2019-04-29T05:27:10.877Z,3.35
2019-04-29T05:29:39.122Z,3.90
2019-04-29T05:32:07.380Z,3.75
2019-04-29T05:34:37.275Z,3.25
2019-04-29T05:37:07.233Z,3.67
2019-04-29T05:39:42.897Z,3.30
2019-04-29T05:42:16.245Z,3.40
2019-04-29T05:44:51.711Z,2.87
2019-04-29T05:47:21.616Z,3.17
2019-04-29T05:50:11.801Z,3.47
2019-04-29T05:52:42.449Z,3.22
2019-04-29T05:55:13.859Z,4.20
2019-04-29T05:57:40.673Z,4.45
2019-04-29T06:00:08.912Z,4.65
2019-04-29T06:02:38.881Z,4.97
2019-04-29T06:05:07.650Z,4.70
2019-04-29T06:07:35.897Z,5.22
2019-04-29T06:10:06.276Z,5.22
2019-04-29T06:12:34.524Z,5.80
2019-04-29T06:15:02.837Z,6.33
2019-04-29T06:17:31.093Z,6.75
2019-04-29T06:19:59.340Z,6.78
2019-04-29T06:22:27.596Z,5.60
2019-04-29T06:24:55.840Z,6.72
2019-04-29T06:27:24.100Z,5.90
2019-04-29T06:29:52.345Z,5.72
2019-04-29T06:32:24.991Z,5.62
2019-04-29T06:34:50.568Z,6.22
2019-04-29T06:37:18.825Z,6.00
2019-04-29T06:39:47.072Z,6.83
2019-04-29T06:42:15.624Z,6.50
2019-04-29T06:44:48.950Z,6.87
2019-04-29T06:47:17.004Z,6.17
2019-04-29T06:49:45.903Z,6.22
2019-04-29T06:52:14.160Z,6.10
2019-04-29T06:54:42.409Z,6.40
2019-04-29T06:57:10.670Z,6.42
2019-04-29T06:59:42.817Z,5.90
2019-04-29T07:02:09.384Z,6.45
2019-04-29T07:04:39.727Z,6.72
2019-04-29T07:07:08.128Z,5.95
2019-04-29T07:09:36.385Z,6.22
2019-04-29T07:12:08.105Z,6.37
2019-04-29T07:14:38.310Z,6.03
2019-04-29T07:17:05.750Z,6.40
2019-04-29T07:19:34.640Z,6.87
2019-04-29T07:22:02.890Z,6.47
2019-04-29T07:24:31.138Z,6.10
2019-04-29T07:27:02.728Z,6.25
2019-04-29T07:29:32.587Z,6.95
2019-04-29T07:31:59.352Z,8.45
2019-04-29T07:34:28.940Z,7.40
2019-04-29T07:36:59.403Z,9.08
2019-04-29T07:39:31.767Z,9.28
2019-04-29T07:41:57.607Z,8.88
2019-04-29T07:44:32.904Z,9.08
2019-04-29T07:47:01.821Z,10.10
2019-04-29T07:49:28.033Z,10.10
2019-04-29T07:51:56.305Z,10.48
2019-04-29T07:54:24.557Z,11.33
2019-04-29T07:56:52.808Z,13.58
2019-04-29T07:59:21.141Z,13.50
2019-04-29T08:01:49.388Z,14.05
2019-04-29T08:04:17.663Z,16.15
2019-04-29T08:06:45.918Z,15.72
2019-04-29T08:09:14.187Z,16.12
2019-04-29T08:11:42.436Z,15.35
2019-04-29T08:14:11.265Z,16.67
2019-04-29T08:16:39.516Z,15.50
2019-04-29T08:19:07.789Z,14.98
2019-04-29T08:21:36.030Z,15.08
2019-04-29T08:24:04.458Z,14.95
2019-04-29T08:26:33.591Z,15.65
2019-04-29T08:29:02.701Z,15.60
2019-04-29T08:31:30.952Z,15.78
2019-04-29T08:33:59.221Z,15.10
2019-04-29T08:36:27.474Z,16.40
2019-04-29T08:39:08.011Z,15.75
2019-04-29T08:41:28.667Z,16.20
2019-04-29T08:44:15.285Z,16.30
2019-04-29T08:46:34.333Z,16.50
2019-04-29T08:49:06.151Z,17.37
2019-04-29T08:51:32.585Z,15.53
2019-04-29T08:54:00.845Z,16.20
2019-04-29T08:56:29.098Z,15.18
2019-04-29T08:58:57.368Z,15.25
2019-04-29T09:01:29.411Z,16.85
2019-04-29T09:03:58.031Z,16.10
2019-04-29T09:06:27.722Z,15.78
2019-04-29T09:08:59.425Z,15.10
2019-04-29T09:11:25.512Z,16.57
2019-04-29T09:13:53.776Z,16.90
2019-04-29T09:16:22.023Z,16.85
2019-04-29T09:18:50.285Z,17.12
2019-04-29T09:21:18.532Z,15.58
2019-04-29T09:23:46.793Z,15.45
2019-04-29T09:26:16.685Z,15.48
2019-04-29T09:28:44.950Z,19.02
2019-04-29T09:31:13.205Z,14.35
2019-04-29T09:33:44.131Z,15.70
2019-04-29T09:36:13.844Z,16.50
2019-04-29T09:38:41.420Z,15.83
2019-04-29T09:41:11.304Z,14.65
2019-04-29T09:44:04.013Z,14.43
2019-04-29T09:46:34.437Z,15.15
2019-04-29T09:49:01.155Z,13.93
2019-04-29T09:51:29.752Z,15.08
2019-04-29T09:53:58.244Z,13.38
2019-04-29T09:56:26.501Z,14.38
2019-04-29T09:58:56.405Z,14.35
2019-04-29T10:01:32.172Z,13.10
2019-04-29T10:04:02.079Z,13.62
2019-04-29T10:06:34.661Z,14.25
2019-04-29T10:09:02.997Z,12.23
2019-04-29T10:11:31.248Z,12.63
2019-04-29T10:13:59.508Z,10.65
2019-04-29T10:16:46.940Z,11.55
2019-04-29T10:22:02.477Z,11.40
2019-04-29T10:24:30.733Z,10.55
2019-04-29T10:26:59.008Z,10.48
2019-04-29T10:29:28.959Z,10.35
2019-04-29T10:31:57.572Z,11.20
2019-04-29T10:34:26.870Z,10.95
2019-04-29T10:36:55.809Z,9.98
2019-04-29T10:39:42.447Z,10.08
2019-04-29T10:42:12.756Z,9.40
2019-04-29T10:44:42.656Z,8.83
2019-04-29T10:47:26.053Z,8.85
2019-04-29T10:52:39.723Z,9.73
2019-04-29T10:55:09.109Z,10.63
2019-04-29T10:57:37.356Z,9.98
2019-04-29T11:00:17.014Z,9.05
2019-04-29T11:02:44.839Z,8.90
2019-04-29T11:07:52.679Z,10.15
2019-04-29T11:10:28.117Z,9.20
2019-04-29T11:12:56.433Z,10.05
2019-04-29T11:15:32.396Z,9.53
2019-04-29T11:20:28.660Z,10.00
2019-04-29T11:22:58.557Z,10.40
2019-04-29T11:25:31.392Z,9.88
2019-04-29T11:28:00.416Z,10.85
2019-04-29T11:30:30.315Z,10.50
2019-04-29T11:33:12.429Z,11.10
2019-04-29T11:35:51.277Z,11.88
2019-04-29T11:38:19.531Z,12.37
2019-04-29T11:40:48.629Z,12.40
2019-04-29T11:43:18.053Z,12.60
2019-04-29T11:45:46.781Z,12.20
2019-04-29T11:48:15.027Z,11.35
2019-04-29T11:50:54.670Z,13.13
2019-04-29T11:53:20.545Z,12.23
2019-04-29T11:55:52.619Z,12.65
2019-04-29T11:58:36.573Z,13.30
2019-04-29T12:01:15.437Z,13.53
2019-04-29T12:03:51.325Z,13.75
2019-04-29T12:06:20.836Z,13.50
2019-04-29T12:08:52.752Z,12.58
2019-04-29T12:11:18.463Z,11.63
2019-04-29T12:14:04.747Z,11.38
2019-04-29T12:16:54.782Z,11.12
2019-04-29T12:19:23.793Z,9.78
2019-04-29T12:21:52.053Z,10.10
2019-04-29T12:24:20.568Z,10.18
2019-04-29T12:26:48.832Z,9.75
2019-04-29T12:29:18.183Z,8.90
2019-04-29T12:31:54.125Z,9.10
2019-04-29T12:34:40.105Z,8.75
2019-04-29T12:37:09.992Z,9.40
2019-04-29T12:39:51.827Z,8.95
2019-04-29T12:42:30.947Z,9.78
2019-04-29T12:45:00.834Z,9.35
2019-04-29T12:47:33.681Z,8.50
2019-04-29T12:50:01.943Z,9.10
2019-04-29T12:52:30.196Z,9.38
2019-04-29T12:55:04.121Z,9.53
2019-04-29T12:57:28.451Z,8.90
2019-04-29T12:59:56.746Z,9.05
2019-04-29T13:02:41.783Z,8.88
2019-04-29T13:05:11.940Z,9.43
2019-04-29T13:07:44.250Z,9.23
2019-04-29T13:10:14.145Z,7.75
2019-04-29T13:12:44.398Z,8.48
2019-04-29T13:15:14.689Z,8.68
2019-04-29T13:18:03.541Z,8.13
2019-04-29T13:20:26.787Z,8.40
2019-04-29T13:23:01.144Z,8.80
2019-04-29T13:25:26.797Z,8.00
2019-04-29T13:27:56.074Z,8.15
2019-04-29T13:30:24.976Z,9.35
2019-04-29T13:32:53.296Z,8.83
2019-04-29T13:35:21.562Z,8.25
2019-04-29T13:37:49.880Z,8.20
2019-04-29T13:40:18.126Z,8.13
2019-04-29T13:42:49.252Z,7.55
2019-04-29T13:45:24.881Z,8.63
2019-04-29T13:48:09.164Z,9.13
2019-04-29T13:50:45.084Z,7.85
2019-04-29T13:53:16.712Z,7.60
2019-04-29T13:55:48.293Z,7.65
2019-04-29T13:58:13.306Z,8.23
2019-04-29T14:00:43.213Z,8.13
2019-04-29T14:03:13.158Z,10.05
2019-04-29T14:05:41.810Z,9.10
2019-04-29T14:08:10.410Z,8.33
2019-04-29T14:10:38.664Z,8.70
2019-04-29T14:15:40.386Z,9.28
2019-04-29T14:18:11.737Z,10.00
2019-04-29T14:18:53.558Z,10.45
2019-04-29T14:20:36.856Z,7.97
2019-04-29T14:23:05.185Z,8.05
2019-04-29T14:25:33.442Z,8.38
2019-04-29T14:28:01.712Z,8.43
2019-04-29T14:30:38.675Z,8.58
2019-04-29T14:33:02.959Z,8.78
2019-04-29T14:35:43.746Z,8.95
2019-04-29T14:38:12.028Z,9.50
2019-04-29T14:40:42.744Z,9.53
2019-04-29T14:43:31.618Z,9.63
2019-04-29T14:46:15.981Z,9.48
2019-04-29T14:48:46.400Z,9.85
2019-04-29T14:51:14.657Z,9.68
2019-04-29T14:53:55.658Z,9.23
2019-04-29T14:56:15.692Z,10.03
2019-04-29T14:58:42.943Z,10.03
2019-04-29T15:01:19.018Z,9.60
2019-04-29T15:03:54.756Z,9.33
2019-04-29T15:06:23.091Z,9.60
2019-04-29T15:08:51.473Z,8.95
2019-04-29T15:11:31.599Z,9.53
2019-04-29T15:13:53.025Z,9.38
2019-04-29T15:16:22.968Z,10.60
2019-04-29T15:18:52.867Z,10.30
2019-04-29T15:21:32.832Z,10.13
2019-04-29T15:23:58.668Z,9.85
2019-04-29T15:26:26.918Z,10.80
2019-04-29T15:28:55.180Z,11.30
2019-04-29T15:31:24.101Z,9.93
2019-04-29T15:33:52.543Z,10.03
2019-04-29T15:36:20.783Z,10.63
2019-04-29T15:39:08.094Z,9.88
2019-04-29T15:41:19.083Z,10.60
2019-04-29T15:43:48.344Z,10.43
2019-04-29T15:46:16.988Z,10.63
2019-04-29T15:48:45.263Z,12.50
2019-04-29T15:51:13.922Z,11.12
2019-04-29T15:53:43.344Z,11.53
2019-04-29T15:56:27.749Z,12.80
2019-04-29T15:58:41.670Z,12.70
2019-04-29T16:01:14.821Z,14.13
2019-04-29T16:03:40.312Z,12.28
2019-04-29T16:06:22.100Z,12.43
2019-04-29T16:08:58.965Z,12.63
2019-04-29T16:14:08.723Z,13.95
2019-04-29T16:16:28.626Z,13.38
2019-04-29T16:19:07.263Z,13.50
2019-04-29T16:21:32.171Z,13.40
2019-04-29T16:23:57.696Z,16.62
2019-04-29T16:26:30.197Z,14.78
2019-04-29T16:28:56.349Z,14.65
2019-04-29T16:31:24.593Z,14.38
2019-04-29T16:33:54.737Z,16.00
2019-04-29T16:36:23.629Z,16.12
2019-04-29T16:38:53.507Z,16.30
2019-04-29T16:44:35.414Z,18.75
2019-04-29T16:46:56.084Z,18.42
2019-04-29T16:49:24.354Z,19.98
2019-04-29T16:51:53.474Z,19.95
2019-04-29T16:54:28.177Z,19.10
2019-04-29T16:56:52.204Z,19.50
2019-04-29T16:59:20.542Z,21.25
2019-04-29T17:01:50.055Z,20.50
2019-04-29T17:04:18.304Z,20.90
2019-04-29T17:07:10.776Z,21.23
2019-04-29T17:12:06.733Z,20.75
2019-04-29T17:15:01.091Z,20.65
2019-04-29T17:17:06.588Z,21.20
2019-04-29T17:19:34.853Z,21.57
2019-04-29T17:22:24.209Z,20.40
2019-04-29T17:24:33.072Z,20.52
2019-04-29T17:27:03.147Z,19.67
2019-04-29T17:29:48.662Z,20.48
2019-04-29T17:32:17.130Z,20.17
2019-04-29T17:35:20.543Z,18.98
2019-04-29T17:37:17.636Z,20.90
2019-04-29T17:39:45.993Z,20.20
2019-04-29T17:42:14.280Z,20.45
2019-04-29T17:44:46.449Z,21.33
2019-04-29T17:47:16.396Z,21.70
2019-04-29T17:49:49.480Z,21.52
2019-04-29T17:52:22.761Z,20.10
2019-04-29T17:54:58.844Z,22.30
2019-04-29T17:57:31.735Z,22.35
2019-04-29T18:00:08.662Z,21.60
2019-04-29T18:02:38.976Z,22.42
2019-04-29T18:07:51.999Z,22.73
2019-04-29T18:10:29.559Z,22.37
2019-04-29T18:12:58.269Z,21.30
2019-04-29T18:15:28.174Z,23.15
2019-04-29T18:18:00.293Z,24.47
2019-04-29T18:20:47.094Z,20.85
2019-04-29T18:23:31.505Z,21.30
2019-04-29T18:26:07.599Z,21.30
2019-04-29T18:28:37.426Z,21.55
2019-04-29T18:31:07.717Z,22.13
2019-04-29T18:33:35.965Z,21.07
2019-04-29T18:36:06.569Z,22.42
2019-04-29T18:38:34.999Z,22.07
2019-04-29T18:41:03.437Z,23.77
2019-04-29T18:43:31.689Z,24.40
2019-04-29T18:45:59.950Z,24.52
2019-04-29T18:48:28.197Z,24.30
2019-04-29T18:50:57.156Z,24.02
2019-04-29T18:53:25.769Z,24.43
2019-04-29T18:55:55.100Z,25.05
2019-04-29T18:58:25.005Z,25.68
2019-04-29T19:00:55.745Z,25.90
2019-04-29T19:03:29.721Z,25.17
2019-04-29T19:06:03.131Z,26.23
2019-04-29T19:08:31.776Z,25.80
2019-04-29T19:10:59.306Z,26.15
2019-04-29T19:13:30.591Z,28.05
2019-04-29T19:16:09.047Z,27.52
2019-04-29T19:18:27.536Z,29.27
2019-04-29T19:20:56.989Z,27.30
2019-04-29T19:23:29.442Z,27.45
2019-04-29T19:25:55.611Z,28.38
2019-04-29T19:28:30.067Z,28.23
2019-04-29T19:30:56.131Z,29.98
2019-04-29T19:33:25.236Z,29.18
2019-04-29T19:35:55.271Z,30.00
2019-04-29T19:38:25.196Z,29.85
2019-04-29T19:40:53.801Z,29.77
2019-04-29T19:43:22.044Z,29.45
2019-04-29T19:45:50.497Z,30.02
2019-04-29T19:48:22.387Z,32.38
2019-04-29T19:50:50.070Z,30.77
2019-04-29T19:53:18.898Z,31.25
2019-04-29T19:55:47.198Z,31.80
2019-04-29T19:58:16.019Z,29.32
2019-04-29T20:00:47.039Z,31.20
2019-04-29T20:03:21.225Z,29.82
2019-04-29T20:05:49.832Z,31.20
2019-04-29T20:08:37.439Z,31.70
2019-04-29T20:10:51.532Z,30.30
2019-04-29T20:13:19.111Z,30.08
2019-04-29T20:16:12.746Z,32.10
2019-04-29T20:18:40.464Z,30.40
2019-04-29T20:21:09.533Z,31.73
2019-04-29T20:23:39.533Z,32.55
2019-04-29T20:26:15.697Z,32.17
2019-04-29T20:28:38.085Z,31.75
2019-04-29T20:31:16.254Z,32.98
2019-04-29T20:33:36.583Z,33.00
2019-04-29T20:36:06.155Z,33.08
2019-04-29T20:38:38.663Z,33.90
2019-04-29T20:41:07.668Z,33.65
2019-04-29T20:43:35.832Z,34.65
2019-04-29T20:46:04.771Z,33.45
2019-04-29T20:48:36.823Z,34.35
2019-04-29T20:51:11.441Z,35.00
2019-04-29T20:56:31.316Z,33.70
2019-04-29T20:59:02.092Z,33.48
2019-04-29T21:01:30.102Z,35.70
2019-04-29T21:03:58.440Z,36.15
2019-04-29T21:06:26.828Z,35.95
2019-04-29T21:08:55.230Z,38.02
2019-04-29T21:11:25.755Z,37.17
2019-04-29T21:13:57.116Z,38.05
2019-04-29T21:16:30.710Z,34.98
2019-04-29T21:18:58.801Z,37.05
2019-04-29T21:21:27.071Z,39.55
2019-04-29T21:23:55.683Z,39.08
2019-04-29T21:26:26.176Z,39.42
2019-04-29T21:28:55.562Z,40.38
2019-04-29T21:31:25.521Z,38.98
2019-04-29T21:33:57.453Z,41.08
2019-04-29T21:36:26.600Z,39.92
2019-04-29T21:39:01.760Z,38.60
2019-04-29T21:41:28.862Z,39.98
2019-04-29T21:43:57.280Z,38.98
2019-04-29T21:46:29.426Z,40.12
2019-04-29T21:48:55.715Z,39.20
2019-04-29T21:51:25.545Z,39.60
2019-04-29T21:53:55.878Z,39.67
2019-04-29T21:56:25.694Z,39.95
2019-04-29T21:58:53.939Z,40.03
2019-04-29T22:01:22.193Z,39.05
2019-04-29T22:03:50.448Z,42.03
2019-04-29T22:06:18.696Z,39.48
2019-04-29T22:08:46.957Z,40.48
2019-04-29T22:11:15.538Z,41.10
2019-04-29T22:13:45.353Z,40.58
2019-04-29T22:16:15.769Z,39.75
2019-04-29T22:18:44.633Z,41.28
2019-04-29T22:21:16.975Z,39.75
2019-04-29T22:23:44.312Z,43.55
2019-04-29T22:26:16.327Z,40.70
2019-04-29T22:28:43.494Z,41.85
2019-04-29T22:31:11.762Z,42.88
2019-04-29T22:33:40.020Z,44.03
2019-04-29T22:36:10.260Z,41.37
2019-04-29T22:38:38.234Z,41.08
2019-04-29T22:41:11.997Z,42.83
2019-04-29T22:43:45.908Z,43.28
2019-04-29T22:46:17.219Z,44.48
2019-04-29T22:48:45.424Z,43.00
2019-04-29T22:51:18.592Z,42.75
2019-04-29T22:53:47.102Z,42.98
2019-04-29T22:56:15.922Z,43.20
2019-04-29T22:58:45.595Z,40.92
2019-04-29T23:01:15.562Z,42.45
2019-04-29T23:03:45.132Z,43.85
2019-04-29T23:06:15.579Z,41.60
2019-04-29T23:08:44.969Z,43.87
2019-04-29T23:11:13.545Z,43.08
2019-04-29T23:13:41.809Z,42.85
2019-04-29T23:16:10.052Z,41.53
2019-04-29T23:18:42.148Z,43.25
2019-04-29T23:21:19.120Z,41.58
2019-04-29T23:23:49.018Z,41.25
2019-04-29T23:26:17.260Z,43.30
2019-04-29T23:28:45.831Z,41.75
2019-04-29T23:31:14.156Z,42.67
2019-04-29T23:33:42.416Z,42.67
2019-04-29T23:36:14.122Z,40.98
2019-04-29T23:38:42.739Z,41.88
2019-04-29T23:41:10.594Z,41.53
2019-04-29T23:43:38.849Z,42.05
2019-04-29T23:46:07.089Z,41.80
2019-04-29T23:48:39.415Z,44.93
2019-04-29T23:51:05.487Z,40.95
2019-04-29T23:53:35.126Z,40.35
2019-04-29T23:56:05.567Z,41.45
2019-04-29T23:58:51.761Z,40.17
